Flight Track Log - Related Links

Times and Time Zones

All times are in EDT time to prevent confusion due to time zone crossing. See the CTL22 flight status page for this flight to view local times or setup timezone preferences in your user account.

Time Position Orientation Groundspeed Altitude Reporting Facility
EDT Latitude Longitude Course Direction KTS MPH feet Rate Location/Type
Tue 21:08:17 42.2114 -85.3906 116° Southeast 140 161 5,100  Level Chicago Center
Tue 21:09:19 42.1964 -85.3411 112° Southeast 142 163 5,900 823 Climbing Chicago Center
Tue 21:10:21 42.1822 -85.2944 112° Southeast 137 158 6,800 581 Climbing Chicago Center
Tue 21:11:00 42.1684 -85.1600 103° East  Level Estimated
Tue 21:11:23 42.1642 -85.2475 117° Southeast 139 160 7,100  Level Chicago Center
Tue 21:12:00 42.1573 -85.0948 103° East  Level Estimated
Tue 21:12:25 42.1406 -85.1908 119° Southeast 162 186 7,100  Level Chicago Center
Tue 21:13:28 42.1131 -85.1333 123° Southeast 176 203 7,100  Level Chicago Center
Tue 21:14:30 42.0886 -85.0711 118° Southeast 184 212 7,100  Level Chicago Center
Tue 21:15:32 42.0567 -85.0003 121° Southeast 185 213 7,100  Level Chicago Center
Tue 21:16:34 42.0356 -84.9367 114° Southeast 185 213 7,100  Level Chicago Center
Tue 21:17:36 42.0119 -84.8753 117° Southeast 185 213 7,100 -97 Level Chicago Center
Tue 21:18:38 41.9881 -84.8161 118° Southeast 181 208 6,900  Descending Chicago Center
Tue 21:19:40 41.9636 -84.7572 119° Southeast 181 208 7,100 97 Climbing Chicago Center
Tue 21:20:42 41.9428 -84.6950 114° Southeast 181 208 7,100  Level Chicago Center
Tue 21:21:44 41.9150 -84.6228 117° Southeast 182 209 7,100  Level Chicago Center
Tue 21:22:46 41.8861 -84.5703 126° Southeast 176 203 7,100  Level Chicago Center
Tue 21:23:48 41.8625 -84.5119 119° Southeast 180 207 7,100  Level Chicago Center
Tue 21:24:50 41.8411 -84.4522 116° Southeast 179 206 7,100 -48 Level Chicago Center
Tue 21:25:52 41.8197 -84.3922 116° Southeast 178 205 7,000  Descending Chicago Center
Tue 21:26:54 41.7969 -84.3347 118° Southeast 177 204 7,100 48 Climbing Chicago Center
Tue 21:27:56 41.7708 -84.2628 116° Southeast 178 205 7,100  Level Chicago Center
Tue 21:28:57 41.7483 -84.2083 119° Southeast 174 200 7,100  Level Chicago Center
Tue 21:29:59 41.7264 -84.1525 118° Southeast 170 196 7,100 -6 Level Chicago Center
Tue 21:46:36 41.6428 -82.9922 95° East 187 215 7,000  Descending Cleveland Center
Tue 21:47:37 41.6294 -82.9250 105° East 183 211 7,100 50 Climbing Cleveland Center
Tue 21:48:37 41.6206 -82.8581 100° East 182 209 7,100  Level Cleveland Center
Tue 21:49:38 41.6156 -82.7883 95° East 193 222 7,100 -246 Level Cleveland Center
Tue 21:50:39 41.6150 -82.7133 91° East 202 232 6,600 -545 Descending Cleveland Center
Tue 21:51:39 41.6164 -82.6356 89° East 211 243 6,000 -567 Descending Cleveland Center
Tue 21:52:46 41.6117 -82.5522 94° East 199 229 5,400 -472 Descending Cleveland Center
Tue 21:53:46 41.6086 -82.4772 93° East 198 228 5,000 -496 Descending Cleveland Center
Tue 21:54:47 41.6056 -82.4050 93° East 198 228 4,400 -656 Descending Cleveland Center
Tue 21:55:54 41.6047 -82.3269 91° East 197 227 3,600 -645 Descending Cleveland Center
Tue 21:56:48 41.6058 -82.2606 89° East 198 228 3,100 -313 Descending Cleveland Center
Tue 21:57:49 41.6025 -82.1908 94° East 183 211 3,000 -50 Descending Cleveland Center
Tue 21:58:49 41.6014 -82.1214 91° East 173 199 3,000  Level Cleveland Center
Tue 21:59:38 41.6022 -82.0714 89° East 177 204 3,000  Level Cleveland Center
Tue 22:00:39 41.5967 -82.0047 96° East 176 203 3,000  Level Cleveland Center
Tue 22:01:39 41.5850 -81.9406 104° East 171 197 3,000  Level Cleveland Center
Tue 22:02:40 41.5775 -81.8794 99° East 172 198 3,000 50 Level Cleveland Center
Tue 22:03:40 41.5636 -81.8153 106° East 174 200 3,100  Climbing Cleveland Center
Tue 22:04:47 41.5642 -81.7431 89° East 186 214 3,000 -469 Descending Cleveland Center
Tue 22:05:48 41.5586 -81.6875 98° East 122 140 2,100 -1,096 Descending Cleveland Center
Tue 22:06:42 41.5336 -81.6789 166° South 102 117 900 -1,333 Descending Cleveland Center
Tue 22:08:00 41.5167 -81.6667 110° East  Level FlightAware Approximate
Tue 22:15:00 41.5175 -81.6833 110° East  Level Estimated

Login

Don't have an account? Register now (free) for customized features, flight alerts, and more!